Private Wetterstation Wechselburg
Wetterdaten: Mittwoch, 03.10.2012
Datum Zeit Temp. +2m Bodentemp. Temp.+5cm Temp. Wind Windchill X Diff Temp. Feuchte +2m Feuchte +5cm Sonnenschein Luftdruck Regen Wind Richtung Richtung Sonnenschein UV Taupunkt Windchill Windben
03.10.2012 00:00 8,4 C 19,4 C 9,5 C 8,6 C 8,6 C 0,2 C 86 % 88 % 0 % 1017,6 hPa 0,0 l/m 0,0 km/h (0 Bft) O-NO 67 0 min 0,0 UV-I 6,2 C 8,6 C 0,0 km/h (0 Bft)
03.10.2012 00:05 8,5 C 19,3 C 9,5 C 8,7 C 8,7 C 0,2 C 86 % 88 % 0 % 1017,5 hPa 0,0 l/m 0,0 km/h (0 Bft) O-SO 112 0 min 0,0 UV-I 6,3 C 8,7 C 0,0 km/h (0 Bft)
03.10.2012 00:10 8,6 C 19,3 C 9,7 C 8,8 C 8,8 C 0,2 C 86 % 88 % 0 % 1017,5 hPa 0,0 l/m 0,0 km/h (0 Bft) O-NO 67 0 min 0,0 UV-I 6,4 C 8,8 C 0,0 km/h (0 Bft)
03.10.2012 00:15 8,8 C 19,3 C 9,7 C 8,8 C 8,8 C 0,0 C 86 % 88 % 0 % 1017,5 hPa 0,0 l/m 0,0 km/h (0 Bft) O-NO 67 0 min 0,0 UV-I 6,6 C 8,8 C 0,0 km/h (0 Bft)
03.10.2012 00:20 8,8 C 19,3 C 9,6 C 8,8 C 8,8 C 0,0 C 85 % 88 % 0 % 1017,5 hPa 0,0 l/m 0,0 km/h (0 Bft) O 90 0 min 0,0 UV-I 6,4 C 8,8 C 0,0 km/h (0 Bft)
03.10.2012 00:25 8,7 C 19,3 C 9,6 C 8,7 C 8,6 C 0,0 C 84 % 88 % 0 % 1017,5 hPa 0,0 l/m 0,0 km/h (0 Bft) S-SO 157 0 min 0,0 UV-I 6,2 C 8,6 C 0,0 km/h (0 Bft)
03.10.2012 00:30 8,7 C 19,3 C 9,5 C 8,7 C 8,6 C 0,0 C 84 % 88 % 0 % 1017,5 hPa 0,0 l/m 0,0 km/h (0 Bft) SO 135 0 min 0,0 UV-I 6,2 C 8,6 C 0,0 km/h (0 Bft)
03.10.2012 00:35 8,6 C 19,3 C 9,4 C 8,5 C 8,4 C 0,0 C 84 % 88 % 0 % 1017,5 hPa 0,0 l/m 0,0 km/h (0 Bft) SO 135 0 min 0,0 UV-I 6,1 C 8,4 C 0,0 km/h (0 Bft)
03.10.2012 00:41 8,4 C 19,3 C 9,2 C 8,3 C 8,1 C 0,0 C 84 % 87 % 0 % 1017,4 hPa 0,0 l/m 0,0 km/h (0 Bft) N 0 0 min 0,0 UV-I 5,9 C 8,1 C 0,0 km/h (0 Bft)
03.10.2012 00:55 8,3 C 19,3 C 9,1 C 8,2 C 8,0 C 0,0 C 84 % 87 % 0 % 1017,4 hPa 0,0 l/m 0,0 km/h (0 Bft) O-NO 67 0 min 0,0 UV-I 5,8 C 8,0 C 0,0 km/h (0 Bft)
03.10.2012 01:00 8,1 C 19,3 C 9,1 C 8,1 C 8,0 C 0,0 C 85 % 88 % 0 % 1017,4 hPa 0,0 l/m 0,0 km/h (0 Bft) O 90 0 min 0,0 UV-I 5,7 C 8,0 C 0,0 km/h (0 Bft)
03.10.2012 01:05 8,0 C 19,3 C 9,0 C 8,0 C 8,0 C 0,0 C 85 % 88 % 0 % 1017,2 hPa 0,0 l/m 0,0 km/h (0 Bft) O-NO 67 0 min 0,0 UV-I 5,6 C 8,0 C 0,0 km/h (0 Bft)
03.10.2012 01:10 8,0 C 19,3 C 8,9 C 8,0 C 7,9 C 0,0 C 85 % 88 % 0 % 1017,2 hPa 0,0 l/m 0,0 km/h (0 Bft) O-NO 67 0 min 0,0 UV-I 5,6 C 7,9 C 0,0 km/h (0 Bft)
03.10.2012 01:15 7,9 C 19,3 C 8,9 C 8,0 C 8,0 C 0,1 C 85 % 88 % 0 % 1017,2 hPa 0,0 l/m 0,0 km/h (0 Bft) O-SO 112 0 min 0,0 UV-I 5,5 C 8,0 C 0,0 km/h (0 Bft)
03.10.2012 01:20 7,9 C 19,3 C 8,9 C 7,9 C 7,9 C 0,0 C 86 % 88 % 0 % 1017,2 hPa 0,0 l/m 0,0 km/h (0 Bft) O 90 0 min 0,0 UV-I 5,7 C 7,9 C 0,0 km/h (0 Bft)
03.10.2012 01:25 7,8 C 19,4 C 8,8 C 7,9 C 7,9 C 0,1 C 86 % 88 % 0 % 1017,1 hPa 0,0 l/m 0,0 km/h (0 Bft) O-NO 67 0 min 0,0 UV-I 5,6 C 7,9 C 0,0 km/h (0 Bft)
03.10.2012 01:30 7,9 C 19,4 C 8,7 C 8,0 C 8,0 C 0,1 C 86 % 88 % 0 % 1017,1 hPa 0,0 l/m 0,0 km/h (0 Bft) O-SO 112 0 min 0,0 UV-I 5,7 C 8,0 C 0,0 km/h (0 Bft)
03.10.2012 01:35 7,9 C 19,4 C 8,6 C 8,0 C 8,0 C 0,1 C 86 % 88 % 0 % 1017,1 hPa 0,0 l/m 0,0 km/h (0 Bft) O-SO 112 0 min 0,0 UV-I 5,7 C 8,0 C 0,0 km/h (0 Bft)
03.10.2012 01:40 7,7 C 19,4 C 8,7 C 7,9 C 7,9 C 0,2 C 86 % 88 % 0 % 1017,1 hPa 0,0 l/m 0,0 km/h (0 Bft) SO 135 0 min 0,0 UV-I 5,5 C 7,9 C 0,0 km/h (0 Bft)
03.10.2012 01:45 7,7 C 19,3 C 8,7 C 8,0 C 8,0 C 0,3 C 86 % 89 % 0 % 1017,1 hPa 0,0 l/m 0,0 km/h (0 Bft) O-NO 67 0 min 0,0 UV-I 5,5 C 8,0 C 0,0 km/h (0 Bft)
03.10.2012 01:50 7,6 C 19,3 C 8,9 C 7,9 C 7,9 C 0,3 C 86 % 89 % 0 % 1017,1 hPa 0,0 l/m 0,0 km/h (0 Bft) W-SW 247 0 min 0,0 UV-I 5,4 C 7,9 C 0,0 km/h (0 Bft)
03.10.2012 01:55 7,7 C 19,3 C 8,8 C 7,8 C 7,8 C 0,1 C 86 % 89 % 0 % 1017,1 hPa 0,0 l/m 0,0 km/h (0 Bft) O-SO 112 0 min 0,0 UV-I 5,5 C 7,8 C 0,0 km/h (0 Bft)
03.10.2012 02:00 7,6 C 19,3 C 8,9 C 7,8 C 7,8 C 0,2 C 87 % 89 % 0 % 1017,1 hPa 0,0 l/m 0,0 km/h (0 Bft) O-SO 112 0 min 0,0 UV-I 5,6 C 7,8 C 0,0 km/h (0 Bft)
03.10.2012 02:05 7,5 C 19,3 C 8,6 C 7,7 C 7,7 C 0,2 C 87 % 88 % 0 % 1016,9 hPa 0,0 l/m 0,0 km/h (0 Bft) O-SO 112 0 min 0,0 UV-I 5,5 C 7,7 C 0,0 km/h (0 Bft)
03.10.2012 02:10 7,4 C 19,3 C 8,7 C 7,5 C 7,5 C 0,1 C 86 % 89 % 0 % 1016,9 hPa 0,0 l/m 0,0 km/h (0 Bft) S 180 0 min 0,0 UV-I 5,2 C 7,5 C 0,0 km/h (0 Bft)
03.10.2012 02:15 7,4 C 19,3 C 8,7 C 7,5 C 7,5 C 0,1 C 86 % 89 % 0 % 1016,9 hPa 0,0 l/m 0,0 km/h (0 Bft) SO 135 0 min 0,0 UV-I 5,2 C 7,5 C 0,0 km/h (0 Bft)
03.10.2012 02:20 7,3 C 19,3 C 8,4 C 7,4 C 7,4 C 0,1 C 87 % 89 % 0 % 1016,9 hPa 0,0 l/m 0,0 km/h (0 Bft) O-NO 67 0 min 0,0 UV-I 5,3 C 7,4 C 0,0 km/h (0 Bft)
03.10.2012 02:25 7,2 C 19,3 C 8,4 C 7,5 C 7,5 C 0,3 C 87 % 89 % 0 % 1017,1 hPa 0,0 l/m 0,0 km/h (0 Bft) O-NO 67 0 min 0,0 UV-I 5,2 C 7,5 C 0,0 km/h (0 Bft)
03.10.2012 02:30 7,2 C 19,3 C 8,4 C 7,5 C 7,5 C 0,3 C 87 % 89 % 0 % 1017,1 hPa 0,0 l/m 0,0 km/h (0 Bft) O-NO 67 0 min 0,0 UV-I 5,2 C 7,5 C 0,0 km/h (0 Bft)
03.10.2012 02:35 7,1 C 19,3 C 8,4 C 7,4 C 7,4 C 0,3 C 87 % 89 % 0 % 1017,1 hPa 0,0 l/m 0,0 km/h (0 Bft) O-SO 112 0 min 0,0 UV-I 5,1 C 7,4 C 0,0 km/h (0 Bft)
03.10.2012 02:40 7,0 C 19,3 C 8,3 C 7,3 C 7,3 C 0,3 C 87 % 89 % 0 % 1017,1 hPa 0,0 l/m 0,0 km/h (0 Bft) O-NO 67 0 min 0,0 UV-I 5,0 C 7,3 C 0,0 km/h (0 Bft)
03.10.2012 02:45 7,1 C 19,3 C 8,2 C 7,2 C 7,2 C 0,1 C 87 % 89 % 0 % 1017,0 hPa 0,0 l/m 0,0 km/h (0 Bft) O 90 0 min 0,0 UV-I 5,1 C 7,2 C 0,0 km/h (0 Bft)
03.10.2012 02:50 7,0 C 19,3 C 8,3 C 7,4 C 7,4 C 0,4 C 88 % 89 % 0 % 1017,0 hPa 0,0 l/m 0,0 km/h (0 Bft) O-SO 112 0 min 0,0 UV-I 5,2 C 7,4 C 0,0 km/h (0 Bft)
03.10.2012 02:55 7,1 C 19,3 C 8,3 C 7,5 C 7,5 C 0,4 C 88 % 89 % 0 % 1017,0 hPa 0,0 l/m 0,0 km/h (0 Bft) O 90 0 min 0,0 UV-I 5,2 C 7,5 C 0,0 km/h (0 Bft)
03.10.2012 03:00 7,2 C 19,2 C 8,3 C 7,5 C 7,5 C 0,3 C 88 % 89 % 0 % 1017,0 hPa 0,0 l/m 0,0 km/h (0 Bft) O-NO 67 0 min 0,0 UV-I 5,3 C 7,5 C 0,0 km/h (0 Bft)
03.10.2012 03:05 7,1 C 19,2 C 8,2 C 7,3 C 7,3 C 0,2 C 88 % 89 % 0 % 1016,9 hPa 0,0 l/m 0,0 km/h (0 Bft) O-NO 67 0 min 0,0 UV-I 5,2 C 7,3 C 0,0 km/h (0 Bft)
03.10.2012 03:10 7,0 C 19,2 C 8,1 C 7,0 C 6,9 C 0,0 C 88 % 89 % 0 % 1016,9 hPa 0,0 l/m 0,0 km/h (0 Bft) O-NO 67 0 min 0,0 UV-I 5,2 C 6,9 C 0,0 km/h (0 Bft)
03.10.2012 03:15 6,8 C 19,2 C 8,0 C 6,9 C 6,9 C 0,1 C 88 % 89 % 0 % 1016,9 hPa 0,0 l/m 0,0 km/h (0 Bft) O-NO 67 0 min 0,0 UV-I 5,0 C 6,9 C 0,0 km/h (0 Bft)
03.10.2012 03:20 6,7 C 19,2 C 8,0 C 6,9 C 6,9 C 0,2 C 88 % 89 % 0 % 1016,9 hPa 0,0 l/m 0,0 km/h (0 Bft) O 90 0 min 0,0 UV-I 4,9 C 6,9 C 0,0 km/h (0 Bft)
03.10.2012 03:25 6,7 C 19,2 C 8,1 C 6,9 C 6,9 C 0,2 C 88 % 89 % 0 % 1016,8 hPa 0,0 l/m 0,0 km/h (0 Bft) W-SW 247 0 min 0,0 UV-I 4,9 C 6,9 C 0,0 km/h (0 Bft)
03.10.2012 03:30 6,7 C 19,1 C 8,1 C 6,8 C 6,8 C 0,1 C 88 % 89 % 0 % 1016,8 hPa 0,0 l/m 0,0 km/h (0 Bft) NW 315 0 min 0,0 UV-I 4,9 C 6,8 C 0,0 km/h (0 Bft)
03.10.2012 03:35 6,5 C 19,1 C 8,1 C 6,7 C 6,7 C 0,2 C 88 % 89 % 0 % 1016,8 hPa 0,0 l/m 0,0 km/h (0 Bft) N-NW 337 0 min 0,0 UV-I 4,7 C 6,7 C 0,0 km/h (0 Bft)
03.10.2012 03:40 6,4 C 19,1 C 7,8 C 6,7 C 6,7 C 0,3 C 87 % 89 % 0 % 1016,8 hPa 0,0 l/m 0,0 km/h (0 Bft) O-NO 67 0 min 0,0 UV-I 4,4 C 6,7 C 0,0 km/h (0 Bft)
03.10.2012 03:45 6,4 C 19,1 C 7,8 C 6,7 C 6,7 C 0,3 C 87 % 89 % 0 % 1016,8 hPa 0,0 l/m 0,0 km/h (0 Bft) O-NO 67 0 min 0,0 UV-I 4,4 C 6,7 C 0,0 km/h (0 Bft)
03.10.2012 03:50 6,4 C 19,1 C 7,9 C 6,7 C 6,7 C 0,3 C 88 % 90 % 0 % 1016,8 hPa 0,0 l/m 0,0 km/h (0 Bft) O-NO 67 0 min 0,0 UV-I 4,6 C 6,7 C 0,0 km/h (0 Bft)
03.10.2012 03:55 6,4 C 19,1 C 7,8 C 6,7 C 6,7 C 0,3 C 88 % 90 % 0 % 1016,8 hPa 0,0 l/m 0,0 km/h (0 Bft) O-NO 67 0 min 0,0 UV-I 4,6 C 6,7 C 0,0 km/h (0 Bft)
03.10.2012 04:00 6,3 C 19,1 C 7,9 C 6,5 C 6,5 C 0,2 C 88 % 90 % 0 % 1016,8 hPa 0,0 l/m 0,0 km/h (0 Bft) SW 225 0 min 0,0 UV-I 4,5 C 6,5 C 0,0 km/h (0 Bft)
03.10.2012 04:05 6,3 C 19,0 C 7,9 C 6,5 C 6,5 C 0,2 C 88 % 90 % 0 % 1016,7 hPa 0,0 l/m 0,0 km/h (0 Bft) W 270 0 min 0,0 UV-I 4,5 C 6,5 C 0,0 km/h (0 Bft)
03.10.2012 04:10 6,2 C 19,1 C 7,7 C 6,4 C 6,4 C 0,2 C 88 % 90 % 0 % 1016,7 hPa 0,0 l/m 0,0 km/h (0 Bft) O-NO 67 0 min 0,0 UV-I 4,4 C 6,4 C 0,0 km/h (0 Bft)
03.10.2012 04:15 6,3 C 19,1 C 7,7 C 6,6 C 6,6 C 0,3 C 88 % 90 % 0 % 1016,7 hPa 0,0 l/m 0,0 km/h (0 Bft) O-NO 67 0 min 0,0 UV-I 4,5 C 6,6 C 0,0 km/h (0 Bft)
03.10.2012 04:20 6,3 C 19,1 C 7,6 C 6,6 C 6,6 C 0,3 C 88 % 90 % 0 % 1016,7 hPa 0,0 l/m 0,0 km/h (0 Bft) O 90 0 min 0,0 UV-I 4,5 C 6,6 C 1,6 km/h (1 Bft)
03.10.2012 04:25 6,2 C 19,1 C 7,7 C 6,7 C 6,7 C 0,5 C 88 % 90 % 0 % 1016,7 hPa 0,0 l/m 0,0 km/h (0 Bft) O 90 0 min 0,0 UV-I 4,4 C 6,7 C 0,0 km/h (0 Bft)
03.10.2012 04:30 6,4 C 19,1 C 7,9 C 7,0 C 7,0 C 0,6 C 89 % 90 % 0 % 1016,7 hPa 0,0 l/m 0,0 km/h (0 Bft) O 90 0 min 0,0 UV-I 4,7 C 7,0 C 0,0 km/h (0 Bft)
03.10.2012 04:35 6,7 C 19,1 C 8,0 C 7,4 C 7,4 C 0,7 C 89 % 91 % 0 % 1016,7 hPa 0,0 l/m 0,0 km/h (0 Bft) O-NO 67 0 min 0,0 UV-I 5,0 C 7,4 C 0,0 km/h (0 Bft)
03.10.2012 04:40 6,9 C 19,1 C 8,3 C 7,6 C 7,6 C 0,7 C 90 % 91 % 0 % 1016,7 hPa 0,0 l/m 0,0 km/h (0 Bft) O 90 0 min 0,0 UV-I 5,4 C 7,6 C 0,0 km/h (0 Bft)
03.10.2012 04:45 6,8 C 19,1 C 8,3 C 7,7 C 7,7 C 0,9 C 90 % 91 % 0 % 1016,5 hPa 0,0 l/m 0,0 km/h (0 Bft) O-NO 67 0 min 0,0 UV-I 5,3 C 7,7 C 0,0 km/h (0 Bft)
03.10.2012 04:50 6,8 C 19,1 C 8,3 C 7,6 C 7,6 C 0,8 C 89 % 90 % 0 % 1016,5 hPa 0,0 l/m 0,0 km/h (0 Bft) O-NO 67 0 min 0,0 UV-I 5,1 C 7,6 C 0,0 km/h (0 Bft)
03.10.2012 04:55 6,8 C 19,1 C 8,2 C 7,6 C 7,6 C 0,8 C 89 % 90 % 0 % 1016,5 hPa 0,0 l/m 0,0 km/h (0 Bft) O-NO 67 0 min 0,0 UV-I 5,1 C 7,6 C 0,0 km/h (0 Bft)
03.10.2012 05:00 7,0 C 19,0 C 8,3 C 7,8 C 7,8 C 0,8 C 90 % 90 % 0 % 1016,5 hPa 0,0 l/m 0,0 km/h (0 Bft) W 270 0 min 0,0 UV-I 5,5 C 7,8 C 3,2 km/h (1 Bft)
03.10.2012 05:05 6,9 C 18,9 C 8,1 C 7,5 C 7,5 C 0,6 C 89 % 90 % 0 % 1016,4 hPa 0,0 l/m 0,3 km/h (0 Bft) W 270 0 min 0,0 UV-I 5,2 C 7,5 C 0,0 km/h (0 Bft)
03.10.2012 05:10 6,7 C 18,9 C 8,0 C 6,9 C 6,9 C 0,2 C 89 % 90 % 0 % 1016,4 hPa 0,0 l/m 0,3 km/h (0 Bft) W-SW 247 0 min 0,0 UV-I 5,0 C 6,9 C 0,0 km/h (0 Bft)
03.10.2012 05:15 6,4 C 18,9 C 7,9 C 6,6 C 6,6 C 0,2 C 88 % 89 % 0 % 1016,4 hPa 0,0 l/m 0,0 km/h (0 Bft) W 270 0 min 0,0 UV-I 4,6 C 6,6 C 0,0 km/h (0 Bft)
03.10.2012 05:20 6,4 C 18,9 C 7,7 C 6,4 C 6,4 C 0,0 C 88 % 89 % 0 % 1016,4 hPa 0,0 l/m 0,0 km/h (0 Bft) W-SW 247 0 min 0,0 UV-I 4,6 C 6,4 C 0,0 km/h (0 Bft)
03.10.2012 05:25 6,2 C 18,9 C 7,6 C 6,4 C 6,4 C 0,2 C 88 % 89 % 0 % 1016,2 hPa 0,0 l/m 0,0 km/h (0 Bft) O-NO 67 0 min 0,0 UV-I 4,4 C 6,4 C 0,0 km/h (0 Bft)
03.10.2012 05:30 6,1 C 18,9 C 7,6 C 6,4 C 6,4 C 0,3 C 88 % 90 % 0 % 1016,2 hPa 0,0 l/m 0,0 km/h (0 Bft) O 90 0 min 0,0 UV-I 4,3 C 6,4 C 0,0 km/h (0 Bft)
03.10.2012 05:35 6,3 C 18,9 C 7,6 C 6,4 C 6,4 C 0,1 C 89 % 90 % 0 % 1016,2 hPa 0,0 l/m 0,5 km/h (0 Bft) O-NO 67 0 min 0,0 UV-I 4,6 C 6,4 C 2,3 km/h (1 Bft)
03.10.2012 05:40 6,3 C 18,9 C 7,6 C 6,7 C 6,7 C 0,4 C 89 % 90 % 0 % 1016,2 hPa 0,0 l/m 0,6 km/h (0 Bft) O-SO 112 0 min 0,0 UV-I 4,6 C 6,7 C 0,0 km/h (0 Bft)
03.10.2012 05:45 6,4 C 18,9 C 7,7 C 6,7 C 6,7 C 0,3 C 89 % 90 % 0 % 1016,1 hPa 0,0 l/m 0,5 km/h (0 Bft) O-NO 67 0 min 0,0 UV-I 4,7 C 6,7 C 0,0 km/h (0 Bft)
03.10.2012 05:50 6,3 C 18,9 C 7,6 C 6,7 C 6,7 C 0,4 C 89 % 90 % 0 % 1016,1 hPa 0,0 l/m 0,0 km/h (0 Bft) W-SW 247 0 min 0,0 UV-I 4,6 C 6,7 C 0,0 km/h (0 Bft)
03.10.2012 05:55 6,2 C 18,8 C 7,6 C 6,7 C 6,7 C 0,5 C 89 % 90 % 0 % 1016,1 hPa 0,0 l/m 0,0 km/h (0 Bft) NW 315 0 min 0,0 UV-I 4,5 C 6,7 C 0,0 km/h (0 Bft)
03.10.2012 06:00 6,1 C 18,8 C 7,6 C 6,5 C 6,5 C 0,4 C 89 % 90 % 0 % 1016,1 hPa 0,0 l/m 0,0 km/h (0 Bft) O-NO 67 0 min 0,0 UV-I 4,4 C 6,5 C 0,0 km/h (0 Bft)
03.10.2012 06:05 6,1 C 18,9 C 7,5 C 6,5 C 6,5 C 0,4 C 89 % 90 % 0 % 1016,1 hPa 0,0 l/m 0,0 km/h (0 Bft) O-NO 67 0 min 0,0 UV-I 4,4 C 6,5 C 0,0 km/h (0 Bft)
03.10.2012 06:10 6,1 C 18,9 C 7,6 C 6,7 C 6,7 C 0,6 C 89 % 90 % 0 % 1016,1 hPa 0,0 l/m 0,0 km/h (0 Bft) O-NO 67 0 min 0,0 UV-I 4,4 C 6,7 C 0,0 km/h (0 Bft)
03.10.2012 06:15 6,3 C 18,9 C 7,6 C 6,9 C 6,9 C 0,6 C 89 % 91 % 0 % 1016,1 hPa 0,0 l/m 0,2 km/h (0 Bft) O 90 0 min 0,0 UV-I 4,6 C 6,9 C 0,0 km/h (0 Bft)
03.10.2012 06:20 6,3 C 18,8 C 7,7 C 7,0 C 7,0 C 0,7 C 89 % 91 % 0 % 1016,1 hPa 0,0 l/m 0,2 km/h (0 Bft) S-SW 202 0 min 0,0 UV-I 4,6 C 7,0 C 0,0 km/h (0 Bft)
03.10.2012 06:25 6,2 C 18,8 C 7,7 C 6,9 C 6,9 C 0,7 C 89 % 90 % 0 % 1015,8 hPa 0,0 l/m 0,0 km/h (0 Bft) O-NO 67 0 min 0,0 UV-I 4,5 C 6,9 C 0,0 km/h (0 Bft)
03.10.2012 06:30 6,3 C 18,9 C 7,7 C 7,0 C 7,0 C 0,7 C 90 % 91 % 0 % 1015,8 hPa 0,0 l/m 0,0 km/h (0 Bft) O 90 0 min 0,0 UV-I 4,8 C 7,0 C 0,0 km/h (0 Bft)
03.10.2012 06:35 6,4 C 18,9 C 7,9 C 7,1 C 7,1 C 0,7 C 90 % 91 % 0 % 1015,8 hPa 0,0 l/m 0,2 km/h (0 Bft) O-NO 67 0 min 0,0 UV-I 4,9 C 7,1 C 0,0 km/h (0 Bft)
03.10.2012 06:41 6,4 C 18,7 C 7,9 C 7,2 C 7,2 C 0,8 C 90 % 91 % 0 % 1015,9 hPa 0,0 l/m 0,2 km/h (0 Bft) N 0 0 min 0,0 UV-I 4,9 C 7,2 C 0,0 km/h (0 Bft)
03.10.2012 06:55 6,4 C 18,7 C 7,9 C 7,2 C 7,2 C 0,8 C 90 % 91 % 0 % 1015,9 hPa 0,0 l/m 0,0 km/h (0 Bft) N-NO 22 0 min 0,0 UV-I 4,9 C 7,2 C 0,0 km/h (0 Bft)
03.10.2012 07:00 6,4 C 18,7 C 8,0 C 7,3 C 7,3 C 0,9 C 90 % 91 % 0 % 1015,9 hPa 0,0 l/m 0,0 km/h (0 Bft) N-NO 22 0 min 0,0 UV-I 4,9 C 7,3 C 0,0 km/h (0 Bft)
03.10.2012 07:05 6,5 C 18,7 C 8,1 C 7,5 C 7,5 C 1,0 C 90 % 91 % 0 % 1015,8 hPa 0,0 l/m 0,3 km/h (0 Bft) W-SW 247 0 min 0,0 UV-I 5,0 C 7,5 C 1,6 km/h (1 Bft)
03.10.2012 07:10 6,4 C 18,7 C 8,1 C 7,5 C 7,5 C 1,1 C 90 % 91 % 0 % 1015,8 hPa 0,0 l/m 0,3 km/h (0 Bft) W-SW 247 0 min 0,0 UV-I 4,9 C 7,5 C 0,0 km/h (0 Bft)
03.10.2012 07:15 6,5 C 18,7 C 8,2 C 7,6 C 7,6 C 1,1 C 90 % 91 % 0 % 1015,8 hPa 0,0 l/m 0,2 km/h (0 Bft) W 270 0 min 0,0 UV-I 5,0 C 7,6 C 0,0 km/h (0 Bft)
03.10.2012 07:20 6,5 C 18,6 C 8,3 C 7,7 C 7,7 C 1,2 C 90 % 91 % 0 % 1015,8 hPa 0,0 l/m 0,5 km/h (0 Bft) S-SW 202 0 min 0,0 UV-I 5,0 C 7,7 C 0,0 km/h (0 Bft)
03.10.2012 07:25 6,6 C 18,7 C 8,2 C 7,6 C 7,6 C 1,0 C 90 % 91 % 26 % 1015,6 hPa 0,0 l/m 0,3 km/h (0 Bft) SW 225 5 min 0,0 UV-I 5,1 C 7,6 C 0,0 km/h (0 Bft)
03.10.2012 07:30 6,7 C 18,7 C 8,3 C 7,7 C 7,7 C 1,0 C 90 % 91 % 26 % 1015,6 hPa 0,0 l/m 0,0 km/h (0 Bft) W-SW 247 5 min 0,0 UV-I 5,2 C 7,7 C 0,0 km/h (0 Bft)
03.10.2012 07:35 6,7 C 18,7 C 8,3 C 7,8 C 7,8 C 1,1 C 90 % 91 % 29 % 1015,6 hPa 0,0 l/m 0,0 km/h (0 Bft) W-SW 247 5 min 0,0 UV-I 5,2 C 7,8 C 0,0 km/h (0 Bft)
03.10.2012 07:40 6,8 C 18,6 C 8,5 C 8,4 C 8,4 C 1,6 C 90 % 91 % 42 % 1015,6 hPa 0,0 l/m 0,0 km/h (0 Bft) SW 225 5 min 0,0 UV-I 5,3 C 8,4 C 0,0 km/h (0 Bft)
03.10.2012 07:45 6,8 C 18,6 C 8,7 C 9,1 C 9,1 C 2,3 C 90 % 91 % 61 % 1015,1 hPa 0,0 l/m 0,3 km/h (0 Bft) W-SW 247 5 min 0,0 UV-I 5,3 C 9,1 C 1,8 km/h (1 Bft)
03.10.2012 07:50 7,1 C 18,6 C 8,7 C 9,2 C 9,2 C 2,1 C 90 % 91 % 55 % 1015,1 hPa 0,0 l/m 0,3 km/h (0 Bft) W 270 5 min 0,0 UV-I 5,6 C 9,2 C 0,0 km/h (0 Bft)
03.10.2012 07:55 7,1 C 18,6 C 8,7 C 9,1 C 9,1 C 2,0 C 90 % 91 % 53 % 1015,1 hPa 0,0 l/m 0,2 km/h (0 Bft) SW 225 5 min 0,0 UV-I 5,6 C 9,1 C 0,0 km/h (0 Bft)
03.10.2012 08:00 7,3 C 18,6 C 8,8 C 9,0 C 9,0 C 1,7 C 91 % 91 % 45 % 1015,1 hPa 0,0 l/m 0,0 km/h (0 Bft) SO 135 5 min 0,0 UV-I 5,9 C 9,0 C 0,0 km/h (0 Bft)
03.10.2012 08:05 7,3 C 18,6 C 8,9 C 9,0 C 9,0 C 1,7 C 91 % 91 % 45 % 1015,2 hPa 0,0 l/m 0,0 km/h (0 Bft) O-NO 67 5 min 0,0 UV-I 5,9 C 9,0 C 0,0 km/h (0 Bft)
03.10.2012 08:10 7,4 C 18,6 C 9,0 C 9,2 C 9,2 C 1,8 C 91 % 91 % 47 % 1015,2 hPa 0,0 l/m 0,0 km/h (0 Bft) O 90 5 min 0,0 UV-I 6,0 C 9,2 C 0,0 km/h (0 Bft)
03.10.2012 08:15 7,6 C 18,6 C 9,2 C 9,3 C 9,3 C 1,7 C 91 % 91 % 45 % 1015,2 hPa 0,0 l/m 0,0 km/h (0 Bft) W 270 5 min 0,0 UV-I 6,2 C 9,3 C 0,0 km/h (0 Bft)
03.10.2012 08:20 7,9 C 18,6 C 9,3 C 9,5 C 9,5 C 1,6 C 91 % 91 % 42 % 1015,2 hPa 0,0 l/m 0,0 km/h (0 Bft) NW 315 0 min 0,0 UV-I 6,5 C 9,5 C 0,0 km/h (0 Bft)
03.10.2012 08:25 7,9 C 18,6 C 9,4 C 9,6 C 9,6 C 1,7 C 91 % 91 % 45 % 1015,6 hPa 0,0 l/m 0,0 km/h (0 Bft) O-NO 67 0 min 0,0 UV-I 6,5 C 9,6 C 0,0 km/h (0 Bft)
03.10.2012 08:30 8,2 C 18,5 C 9,6 C 10,0 C 10,0 C 1,8 C 91 % 91 % 47 % 1015,6 hPa 0,0 l/m 0,0 km/h (0 Bft) O 90 0 min 0,0 UV-I 6,8 C 10,0 C 0,0 km/h (0 Bft)
03.10.2012 08:35 8,4 C 18,5 C 9,9 C 10,3 C 10,3 C 1,9 C 91 % 91 % 50 % 1015,6 hPa 0,0 l/m 0,0 km/h (0 Bft) O-NO 67 0 min 0,0 UV-I 7,0 C 10,3 C 0,0 km/h (0 Bft)
03.10.2012 08:40 8,6 C 18,5 C 10,1 C 10,8 C 10,8 C 2,2 C 92 % 91 % 58 % 1015,6 hPa 0,0 l/m 0,0 km/h (0 Bft) SO 135 5 min 0,0 UV-I 7,4 C 10,8 C 0,0 km/h (0 Bft)
03.10.2012 08:45 8,9 C 18,5 C 10,3 C 11,3 C 11,3 C 2,4 C 92 % 91 % 63 % 1015,7 hPa 0,0 l/m 0,0 km/h (0 Bft) O-SO 112 5 min 0,0 UV-I 7,7 C 11,3 C 0,0 km/h (0 Bft)
03.10.2012 08:50 9,3 C 18,5 C 10,7 C 11,8 C 11,8 C 2,5 C 92 % 91 % 66 % 1015,7 hPa 0,0 l/m 0,0 km/h (0 Bft) O-NO 67 5 min 0,0 UV-I 8,1 C 11,8 C 0,0 km/h (0 Bft)
03.10.2012 08:55 9,7 C 18,5 C 10,8 C 12,2 C 12,2 C 2,5 C 92 % 91 % 66 % 1015,7 hPa 0,0 l/m 0,0 km/h (0 Bft) O-SO 112 5 min 0,0 UV-I 8,5 C 12,2 C 0,0 km/h (0 Bft)
03.10.2012 09:00 10,0 C 18,3 C 11,3 C 13,0 C 13,0 C 3,0 C 92 % 92 % 79 % 1015,7 hPa 0,0 l/m 0,0 km/h (0 Bft) W-SW 247 5 min 0,0 UV-I 8,8 C 13,0 C 0,0 km/h (0 Bft)
03.10.2012 09:05 10,3 C 18,2 C 11,5 C 13,5 C 13,5 C 3,2 C 92 % 91 % 84 % 1015,7 hPa 0,0 l/m 0,0 km/h (0 Bft) O-NO 67 5 min 0,0 UV-I 9,1 C 13,5 C 0,0 km/h (0 Bft)
03.10.2012 09:10 10,7 C 18,2 C 11,7 C 14,4 C 14,4 C 3,7 C 91 % 91 % 97 % 1015,7 hPa 0,0 l/m 0,0 km/h (0 Bft) W-SW 247 5 min 0,0 UV-I 9,3 C 14,4 C 0,0 km/h (0 Bft)
03.10.2012 09:15 10,9 C 18,1 C 11,9 C 14,8 C 14,8 C 3,9 C 91 % 90 % 100 % 1015,7 hPa 0,0 l/m 0,2 km/h (0 Bft) W-SW 247 5 min 0,0 UV-I 9,5 C 14,8 C 1,8 km/h (1 Bft)
03.10.2012 09:20 11,4 C 18,1 C 12,0 C 15,1 C 15,1 C 3,7 C 90 % 90 % 97 % 1015,7 hPa 0,0 l/m 0,6 km/h (0 Bft) W 270 5 min 0,0 UV-I 9,8 C 15,1 C 1,9 km/h (1 Bft)
03.10.2012 09:25 11,7 C 18,1 C 12,1 C 15,0 C 15,0 C 3,3 C 89 % 89 % 87 % 1015,7 hPa 0,0 l/m 1,1 km/h (1 Bft) S-SO 157 5 min 0,0 UV-I 9,9 C 15,0 C 3,4 km/h (1 Bft)
03.10.2012 09:30 11,8 C 18,1 C 12,3 C 14,9 C 14,9 C 3,1 C 87 % 89 % 82 % 1015,7 hPa 0,0 l/m 1,6 km/h (1 Bft) S 180 0 min 0,0 UV-I 9,7 C 14,9 C 8,4 km/h (2 Bft)
03.10.2012 09:35 12,0 C 18,1 C 12,3 C 15,0 C 15,0 C 3,0 C 85 % 88 % 79 % 1015,7 hPa 0,0 l/m 1,1 km/h (1 Bft) W 270 0 min 0,0 UV-I 9,6 C 15,0 C 0,0 km/h (0 Bft)
03.10.2012 09:40 12,3 C 18,1 C 12,4 C 15,0 C 15,0 C 2,7 C 84 % 88 % 71 % 1015,7 hPa 0,0 l/m 0,8 km/h (0 Bft) SO 135 0 min 0,0 UV-I 9,7 C 15,0 C 2,6 km/h (1 Bft)
03.10.2012 09:45 12,5 C 18,1 C 12,5 C 15,0 C 15,0 C 2,5 C 83 % 88 % 66 % 1015,8 hPa 0,0 l/m 0,5 km/h (0 Bft) SW 225 0 min 0,0 UV-I 9,7 C 15,0 C 0,0 km/h (0 Bft)
03.10.2012 09:50 12,8 C 18,1 C 12,7 C 15,4 C 15,4 C 2,6 C 82 % 87 % 68 % 1015,8 hPa 0,0 l/m 0,5 km/h (0 Bft) SW 225 0 min 0,0 UV-I 9,8 C 15,4 C 2,3 km/h (1 Bft)
03.10.2012 09:55 13,1 C 18,1 C 13,0 C 15,8 C 15,8 C 2,7 C 81 % 87 % 71 % 1015,8 hPa 0,0 l/m 1,1 km/h (1 Bft) W-SW 247 0 min 0,2 UV-I 9,9 C 15,8 C 3,1 km/h (1 Bft)
03.10.2012 10:00 13,6 C 18,1 C 13,2 C 16,3 C 16,3 C 2,7 C 79 % 86 % 71 % 1015,8 hPa 0,0 l/m 1,8 km/h (1 Bft) SW 225 0 min 0,2 UV-I 10,0 C 16,3 C 3,4 km/h (1 Bft)
03.10.2012 10:05 13,9 C 18,1 C 13,3 C 16,5 C 16,5 C 2,6 C 78 % 85 % 68 % 1016,2 hPa 0,0 l/m 1,8 km/h (1 Bft) O-SO 112 0 min 0,3 UV-I 10,1 C 16,5 C 2,6 km/h (1 Bft)
03.10.2012 10:10 14,3 C 18,1 C 13,6 C 16,5 C 16,5 C 2,2 C 76 % 85 % 58 % 1016,2 hPa 0,0 l/m 1,6 km/h (1 Bft) S 180 0 min 0,4 UV-I 10,1 C 16,5 C 2,7 km/h (1 Bft)
03.10.2012 10:15 14,4 C 18,1 C 13,9 C 16,7 C 16,7 C 2,3 C 76 % 84 % 61 % 1016,2 hPa 0,0 l/m 1,4 km/h (1 Bft) W-SW 247 0 min 0,4 UV-I 10,2 C 16,7 C 3,4 km/h (1 Bft)
03.10.2012 10:20 14,8 C 18,1 C 14,2 C 17,2 C 17,2 C 2,4 C 75 % 83 % 63 % 1016,2 hPa 0,0 l/m 2,7 km/h (1 Bft) S 180 0 min 0,4 UV-I 10,4 C 17,2 C 13,8 km/h (3 Bft)
03.10.2012 10:25 15,1 C 18,1 C 14,4 C 17,4 C 17,4 C 2,3 C 74 % 82 % 61 % 1016,1 hPa 0,0 l/m 3,1 km/h (1 Bft) W-SW 247 0 min 0,4 UV-I 10,5 C 17,4 C 2,3 km/h (1 Bft)
03.10.2012 10:30 15,4 C 18,1 C 14,5 C 17,6 C 17,6 C 2,2 C 73 % 81 % 58 % 1016,1 hPa 0,0 l/m 2,4 km/h (1 Bft) S 180 0 min 0,5 UV-I 10,6 C 17,6 C 5,1 km/h (1 Bft)
03.10.2012 10:35 15,5 C 18,1 C 14,7 C 17,6 C 17,6 C 2,1 C 72 % 81 % 55 % 1016,1 hPa 0,0 l/m 2,3 km/h (1 Bft) W-SW 247 0 min 0,5 UV-I 10,5 C 17,6 C 3,5 km/h (1 Bft)
03.10.2012 10:40 15,6 C 18,1 C 14,7 C 17,4 C 17,4 C 1,8 C 72 % 81 % 47 % 1016,1 hPa 0,0 l/m 2,1 km/h (1 Bft) W-SW 247 0 min 0,6 UV-I 10,6 C 17,4 C 4,3 km/h (1 Bft)
03.10.2012 10:45 15,6 C 18,1 C 14,7 C 17,2 C 17,2 C 1,6 C 71 % 80 % 42 % 1016,0 hPa 0,0 l/m 2,3 km/h (1 Bft) S-SW 202 0 min 0,7 UV-I 10,4 C 17,2 C 2,7 km/h (1 Bft)
03.10.2012 10:50 15,7 C 18,1 C 14,8 C 17,4 C 17,4 C 1,7 C 71 % 80 % 45 % 1016,0 hPa 0,0 l/m 2,1 km/h (1 Bft) S 180 0 min 0,7 UV-I 10,5 C 17,4 C 2,1 km/h (1 Bft)
03.10.2012 10:55 15,9 C 18,1 C 14,9 C 17,7 C 17,7 C 1,8 C 71 % 80 % 47 % 1016,0 hPa 0,0 l/m 1,6 km/h (1 Bft) SO 135 0 min 0,9 UV-I 10,6 C 17,7 C 3,7 km/h (1 Bft)
03.10.2012 11:00 16,1 C 18,0 C 15,1 C 17,9 C 17,9 C 1,8 C 71 % 80 % 47 % 1016,0 hPa 0,0 l/m 1,9 km/h (1 Bft) SW 225 0 min 0,9 UV-I 10,8 C 17,9 C 2,4 km/h (1 Bft)
03.10.2012 11:05 16,1 C 18,0 C 15,1 C 17,9 C 17,9 C 1,8 C 71 % 79 % 47 % 1015,9 hPa 0,0 l/m 1,6 km/h (1 Bft) S-SW 202 0 min 0,9 UV-I 10,8 C 17,9 C 1,6 km/h (1 Bft)
03.10.2012 11:10 16,1 C 18,0 C 15,2 C 17,8 C 17,8 C 1,7 C 71 % 79 % 45 % 1015,9 hPa 0,0 l/m 2,3 km/h (1 Bft) O 90 0 min 0,9 UV-I 10,8 C 17,8 C 3,4 km/h (1 Bft)
03.10.2012 11:15 16,2 C 18,1 C 15,2 C 17,6 C 17,6 C 1,4 C 71 % 79 % 37 % 1015,9 hPa 0,0 l/m 2,4 km/h (1 Bft) SW 225 0 min 0,9 UV-I 10,9 C 17,6 C 1,9 km/h (1 Bft)
03.10.2012 11:20 16,2 C 18,1 C 15,2 C 17,6 C 17,6 C 1,4 C 70 % 78 % 37 % 1015,9 hPa 0,0 l/m 2,3 km/h (1 Bft) S-SW 202 0 min 0,9 UV-I 10,7 C 17,6 C 5,6 km/h (1 Bft)
03.10.2012 11:25 16,3 C 18,1 C 15,3 C 17,5 C 17,5 C 1,2 C 70 % 78 % 32 % 1015,8 hPa 0,0 l/m 2,3 km/h (1 Bft) N-NW 337 0 min 0,9 UV-I 10,8 C 17,5 C 2,3 km/h (1 Bft)
03.10.2012 11:30 16,4 C 18,1 C 15,4 C 17,4 C 17,4 C 1,0 C 69 % 77 % 26 % 1015,8 hPa 0,0 l/m 2,9 km/h (1 Bft) S-SO 157 0 min 0,9 UV-I 10,7 C 17,4 C 8,2 km/h (2 Bft)
03.10.2012 11:35 16,5 C 18,1 C 15,6 C 17,5 C 17,5 C 1,0 C 69 % 77 % 26 % 1015,8 hPa 0,0 l/m 3,1 km/h (1 Bft) W 270 0 min 1,0 UV-I 10,8 C 17,5 C 2,1 km/h (1 Bft)
03.10.2012 11:40 16,7 C 18,1 C 15,7 C 17,4 C 17,4 C 0,7 C 68 % 77 % 18 % 1015,8 hPa 0,0 l/m 2,7 km/h (1 Bft) SO 135 0 min 1,0 UV-I 10,8 C 17,4 C 7,2 km/h (2 Bft)
03.10.2012 11:45 16,7 C 18,1 C 15,7 C 17,4 C 17,4 C 0,7 C 68 % 76 % 18 % 1015,8 hPa 0,0 l/m 2,9 km/h (1 Bft) N-NW 337 0 min 1,0 UV-I 10,8 C 17,4 C 5,0 km/h (1 Bft)
03.10.2012 11:50 16,7 C 18,1 C 15,6 C 17,2 C 17,2 C 0,5 C 66 % 74 % 13 % 1015,8 hPa 0,0 l/m 4,5 km/h (1 Bft) O-NO 67 0 min 1,0 UV-I 10,3 C 17,2 C 5,5 km/h (1 Bft)
03.10.2012 11:55 16,6 C 18,1 C 15,7 C 17,1 C 17,1 C 0,5 C 65 % 74 % 13 % 1015,8 hPa 0,0 l/m 4,7 km/h (1 Bft) W-SW 247 0 min 1,1 UV-I 10,0 C 17,1 C 8,9 km/h (2 Bft)
03.10.2012 12:00 16,7 C 18,1 C 15,6 C 17,0 C 17,0 C 0,3 C 65 % 73 % 8 % 1015,8 hPa 0,0 l/m 6,3 km/h (2 Bft) S-SO 157 0 min 1,0 UV-I 10,1 C 17,0 C 15,6 km/h (3 Bft)
03.10.2012 12:05 16,6 C 18,1 C 15,7 C 17,1 C 17,1 C 0,5 C 65 % 74 % 13 % 1015,4 hPa 0,0 l/m 6,9 km/h (2 Bft) W 270 0 min 1,0 UV-I 10,0 C 17,1 C 8,5 km/h (2 Bft)
03.10.2012 12:10 16,7 C 18,2 C 15,8 C 17,2 C 17,2 C 0,5 C 64 % 72 % 13 % 1015,4 hPa 0,0 l/m 4,8 km/h (1 Bft) W-NW 292 0 min 1,0 UV-I 9,9 C 17,2 C 3,5 km/h (1 Bft)
03.10.2012 12:15 16,8 C 18,2 C 15,9 C 17,4 C 17,4 C 0,6 C 64 % 72 % 16 % 1015,4 hPa 0,0 l/m 3,9 km/h (1 Bft) NW 315 0 min 1,0 UV-I 10,0 C 17,4 C 4,5 km/h (1 Bft)
03.10.2012 12:20 16,8 C 18,2 C 16,0 C 17,7 C 17,7 C 0,9 C 64 % 72 % 24 % 1015,4 hPa 0,0 l/m 3,7 km/h (1 Bft) S 180 0 min 1,1 UV-I 10,0 C 17,7 C 9,7 km/h (2 Bft)
03.10.2012 12:25 17,0 C 18,2 C 16,0 C 18,0 C 18,0 C 1,0 C 64 % 72 % 26 % 1015,4 hPa 0,0 l/m 3,5 km/h (1 Bft) SW 225 0 min 1,1 UV-I 10,1 C 18,0 C 4,3 km/h (1 Bft)
03.10.2012 12:30 17,1 C 18,2 C 16,2 C 19,8 C 19,8 C 2,7 C 64 % 72 % 71 % 1015,4 hPa 0,0 l/m 3,4 km/h (1 Bft) SO 135 0 min 1,5 UV-I 10,2 C 19,8 C 4,0 km/h (1 Bft)
03.10.2012 12:35 17,4 C 18,2 C 16,2 C 21,1 C 21,1 C 3,7 C 64 % 72 % 97 % 1015,4 hPa 0,0 l/m 3,2 km/h (1 Bft) O-SO 112 5 min 1,6 UV-I 10,5 C 21,1 C 1,8 km/h (1 Bft)
03.10.2012 12:41 17,9 C 18,2 C 16,4 C 22,9 C 22,9 C 5,0 C 61 % 71 % 100 % 1015,2 hPa 0,0 l/m 2,9 km/h (1 Bft) N 0 6 min 2,1 UV-I 10,3 C 22,9 C 0,0 km/h (0 Bft)
03.10.2012 12:55 18,0 C 18,3 C 16,7 C 23,9 C 23,9 C 5,9 C 61 % 69 % 100 % 1015,2 hPa 0,0 l/m 2,3 km/h (1 Bft) W 270 14 min 2,2 UV-I 10,4 C 23,9 C 5,1 km/h (1 Bft)
03.10.2012 13:00 18,0 C 18,3 C 16,8 C 23,8 C 23,8 C 5,8 C 60 % 69 % 100 % 1015,2 hPa 0,0 l/m 3,5 km/h (1 Bft) O-SO 112 5 min 2,2 UV-I 10,1 C 23,8 C 3,1 km/h (1 Bft)
03.10.2012 13:05 18,3 C 18,3 C 16,9 C 24,0 C 24,0 C 5,7 C 60 % 68 % 100 % 1014,9 hPa 0,0 l/m 3,7 km/h (1 Bft) O 90 5 min 1,9 UV-I 10,4 C 24,0 C 5,8 km/h (2 Bft)
03.10.2012 13:10 18,3 C 18,3 C 17,1 C 23,8 C 23,8 C 5,5 C 57 % 66 % 100 % 1014,9 hPa 0,0 l/m 3,5 km/h (1 Bft) S-SO 157 5 min 2,1 UV-I 9,6 C 23,8 C 2,6 km/h (1 Bft)
03.10.2012 13:15 18,3 C 18,3 C 17,1 C 23,7 C 23,7 C 5,4 C 58 % 66 % 100 % 1014,9 hPa 0,0 l/m 3,9 km/h (1 Bft) SW 225 5 min 2,0 UV-I 9,9 C 23,7 C 4,3 km/h (1 Bft)
03.10.2012 13:20 18,5 C 18,3 C 17,2 C 23,9 C 23,9 C 5,4 C 58 % 66 % 100 % 1014,9 hPa 0,0 l/m 3,5 km/h (1 Bft) NW 315 5 min 1,9 UV-I 10,1 C 23,9 C 5,3 km/h (1 Bft)
03.10.2012 13:25 18,5 C 18,4 C 17,2 C 24,0 C 24,0 C 5,5 C 59 % 66 % 100 % 1014,6 hPa 0,0 l/m 3,5 km/h (1 Bft) S 180 5 min 1,4 UV-I 10,3 C 24,0 C 0,0 km/h (0 Bft)
03.10.2012 13:30 18,7 C 18,3 C 17,5 C 24,2 C 24,2 C 5,5 C 58 % 66 % 100 % 1014,6 hPa 0,0 l/m 4,5 km/h (1 Bft) SW 225 5 min 1,2 UV-I 10,3 C 24,2 C 16,6 km/h (3 Bft)
03.10.2012 13:35 18,7 C 18,3 C 17,5 C 23,8 C 23,8 C 5,1 C 58 % 66 % 100 % 1014,6 hPa 0,0 l/m 5,0 km/h (1 Bft) S-SO 157 5 min 1,3 UV-I 10,3 C 23,8 C 9,5 km/h (2 Bft)
03.10.2012 13:40 18,7 C 18,3 C 17,5 C 24,0 C 24,0 C 5,3 C 58 % 66 % 100 % 1014,6 hPa 0,0 l/m 4,8 km/h (1 Bft) S-SW 202 5 min 1,6 UV-I 10,3 C 24,0 C 9,7 km/h (2 Bft)
03.10.2012 13:45 18,8 C 18,3 C 17,6 C 24,2 C 24,2 C 5,4 C 57 % 65 % 100 % 1014,5 hPa 0,0 l/m 4,2 km/h (1 Bft) SO 135 5 min 1,8 UV-I 10,1 C 24,2 C 6,3 km/h (2 Bft)
03.10.2012 13:50 18,8 C 18,3 C 17,7 C 24,1 C 24,1 C 5,3 C 57 % 64 % 100 % 1014,5 hPa 0,0 l/m 4,5 km/h (1 Bft) O-NO 67 5 min 1,3 UV-I 10,1 C 24,1 C 8,4 km/h (2 Bft)
03.10.2012 13:55 18,8 C 18,4 C 17,8 C 23,9 C 23,9 C 5,1 C 56 % 64 % 100 % 1014,5 hPa 0,0 l/m 5,0 km/h (1 Bft) S 180 5 min 1,2 UV-I 9,8 C 23,9 C 8,9 km/h (2 Bft)
03.10.2012 14:00 18,9 C 18,4 C 18,0 C 23,9 C 23,9 C 5,0 C 57 % 64 % 100 % 1014,5 hPa 0,0 l/m 5,1 km/h (1 Bft) N-NO 22 5 min 1,2 UV-I 10,2 C 23,9 C 5,3 km/h (1 Bft)
03.10.2012 14:05 19,1 C 18,4 C 18,0 C 24,1 C 24,1 C 5,0 C 57 % 64 % 100 % 1014,1 hPa 0,0 l/m 5,0 km/h (1 Bft) SO 135 5 min 1,1 UV-I 10,4 C 24,1 C 12,4 km/h (3 Bft)
03.10.2012 14:10 19,3 C 18,4 C 18,3 C 24,2 C 24,2 C 4,9 C 57 % 64 % 100 % 1014,1 hPa 0,0 l/m 5,0 km/h (1 Bft) W 270 5 min 1,1 UV-I 10,6 C 24,2 C 5,0 km/h (1 Bft)
03.10.2012 14:15 19,5 C 18,4 C 18,3 C 24,5 C 24,5 C 5,0 C 56 % 64 % 100 % 1014,1 hPa 0,0 l/m 4,8 km/h (1 Bft) S-SO 157 5 min 1,1 UV-I 10,5 C 24,5 C 7,2 km/h (2 Bft)
03.10.2012 14:20 19,4 C 18,4 C 18,7 C 24,6 C 24,6 C 5,2 C 55 % 62 % 100 % 1014,1 hPa 0,0 l/m 3,5 km/h (1 Bft) W 270 5 min 1,2 UV-I 10,1 C 24,6 C 7,1 km/h (2 Bft)
03.10.2012 14:25 19,6 C 18,5 C 18,6 C 24,4 C 24,4 C 4,8 C 55 % 63 % 100 % 1014,4 hPa 0,0 l/m 4,2 km/h (1 Bft) N-NO 22 5 min 1,1 UV-I 10,3 C 24,4 C 2,4 km/h (1 Bft)
03.10.2012 14:30 19,4 C 18,5 C 18,5 C 23,3 C 23,3 C 3,9 C 55 % 62 % 100 % 1014,4 hPa 0,0 l/m 5,0 km/h (1 Bft) S-SO 157 5 min 1,1 UV-I 10,1 C 23,3 C 11,9 km/h (2 Bft)
03.10.2012 14:35 19,5 C 18,5 C 18,4 C 22,9 C 22,9 C 3,4 C 56 % 63 % 89 % 1014,4 hPa 0,0 l/m 4,2 km/h (1 Bft) S 180 5 min 1,0 UV-I 10,5 C 22,9 C 7,9 km/h (2 Bft)
03.10.2012 14:40 19,5 C 18,5 C 18,5 C 22,9 C 22,9 C 3,4 C 56 % 63 % 89 % 1014,4 hPa 0,0 l/m 4,7 km/h (1 Bft) O 90 5 min 1,0 UV-I 10,5 C 22,9 C 6,1 km/h (2 Bft)
03.10.2012 14:45 19,6 C 18,5 C 18,7 C 23,3 C 23,3 C 3,7 C 55 % 62 % 97 % 1014,1 hPa 0,0 l/m 5,5 km/h (1 Bft) W-NW 292 5 min 1,0 UV-I 10,3 C 23,3 C 7,7 km/h (2 Bft)
03.10.2012 14:50 19,7 C 18,6 C 18,9 C 23,4 C 23,4 C 3,7 C 53 % 62 % 97 % 1014,1 hPa 0,0 l/m 8,0 km/h (2 Bft) S-SW 202 5 min 0,9 UV-I 9,8 C 23,4 C 22,4 km/h (4 Bft)
03.10.2012 14:55 19,9 C 18,6 C 19,0 C 23,5 C 23,5 C 3,6 C 53 % 62 % 95 % 1014,1 hPa 0,0 l/m 9,5 km/h (2 Bft) W 270 5 min 0,9 UV-I 10,0 C 23,5 C 14,0 km/h (3 Bft)
03.10.2012 15:00 20,0 C 18,6 C 19,1 C 23,7 C 23,7 C 3,7 C 53 % 61 % 97 % 1014,1 hPa 0,0 l/m 7,7 km/h (2 Bft) W 270 5 min 0,9 UV-I 10,1 C 23,7 C 3,9 km/h (1 Bft)
03.10.2012 15:05 20,0 C 18,6 C 19,1 C 23,5 C 23,5 C 3,5 C 52 % 61 % 92 % 1013,9 hPa 0,0 l/m 6,1 km/h (2 Bft) S-SW 202 5 min 0,9 UV-I 9,8 C 23,5 C 6,8 km/h (2 Bft)
03.10.2012 15:10 20,4 C 18,7 C 19,2 C 23,7 C 23,7 C 3,3 C 52 % 60 % 87 % 1013,9 hPa 0,0 l/m 7,1 km/h (2 Bft) S 180 5 min 0,8 UV-I 10,2 C 23,7 C 20,0 km/h (4 Bft)
03.10.2012 15:15 20,4 C 18,7 C 19,3 C 23,8 C 23,8 C 3,4 C 52 % 61 % 89 % 1013,9 hPa 0,0 l/m 7,9 km/h (2 Bft) W 270 5 min 0,8 UV-I 10,2 C 23,8 C 4,3 km/h (1 Bft)
03.10.2012 15:20 20,5 C 18,7 C 19,5 C 24,4 C 24,4 C 3,9 C 52 % 59 % 100 % 1013,9 hPa 0,0 l/m 5,8 km/h (2 Bft) S 180 5 min 0,7 UV-I 10,3 C 24,4 C 2,4 km/h (1 Bft)
03.10.2012 15:25 20,5 C 18,7 C 19,4 C 24,9 C 24,9 C 4,4 C 52 % 59 % 100 % 1013,9 hPa 0,0 l/m 3,5 km/h (1 Bft) O-NO 67 5 min 0,7 UV-I 10,3 C 24,9 C 6,4 km/h (2 Bft)
03.10.2012 15:30 20,6 C 18,7 C 19,5 C 24,7 C 24,7 C 4,1 C 50 % 58 % 100 % 1013,9 hPa 0,0 l/m 5,6 km/h (1 Bft) W-SW 247 5 min 0,7 UV-I 9,8 C 24,7 C 6,0 km/h (2 Bft)
03.10.2012 15:35 20,5 C 18,7 C 19,1 C 23,2 C 23,2 C 2,7 C 50 % 59 % 71 % 1013,9 hPa 0,0 l/m 7,7 km/h (2 Bft) W 270 0 min 0,7 UV-I 9,7 C 23,2 C 8,4 km/h (2 Bft)
03.10.2012 15:40 20,1 C 18,7 C 18,9 C 21,7 C 21,7 C 1,6 C 51 % 60 % 42 % 1013,9 hPa 0,0 l/m 7,6 km/h (2 Bft) W-SW 247 0 min 0,6 UV-I 9,6 C 21,7 C 7,1 km/h (2 Bft)
03.10.2012 15:45 20,0 C 18,7 C 18,9 C 21,4 C 21,4 C 1,4 C 53 % 61 % 37 % 1013,9 hPa 0,0 l/m 6,4 km/h (2 Bft) SW 225 0 min 0,4 UV-I 10,1 C 21,4 C 5,3 km/h (1 Bft)
03.10.2012 15:50 20,2 C 18,8 C 18,9 C 21,5 C 21,5 C 1,3 C 52 % 61 % 34 % 1013,9 hPa 0,0 l/m 6,0 km/h (2 Bft) W-SW 247 0 min 0,4 UV-I 10,0 C 21,5 C 10,1 km/h (2 Bft)
03.10.2012 15:55 20,3 C 18,8 C 19,1 C 21,5 C 21,5 C 1,2 C 52 % 60 % 32 % 1013,9 hPa 0,0 l/m 6,6 km/h (2 Bft) W 270 0 min 0,4 UV-I 10,1 C 21,5 C 7,1 km/h (2 Bft)
03.10.2012 16:00 20,2 C 18,8 C 19,1 C 21,4 C 21,4 C 1,2 C 52 % 61 % 32 % 1013,9 hPa 0,0 l/m 7,9 km/h (2 Bft) W-SW 247 0 min 0,4 UV-I 10,0 C 21,4 C 8,5 km/h (2 Bft)
03.10.2012 16:05 20,3 C 18,8 C 19,0 C 21,5 C 21,5 C 1,2 C 52 % 61 % 32 % 1013,9 hPa 0,0 l/m 8,0 km/h (2 Bft) W-SW 247 0 min 0,4 UV-I 10,1 C 21,5 C 14,8 km/h (3 Bft)
03.10.2012 16:10 20,2 C 18,8 C 19,0 C 21,5 C 21,5 C 1,3 C 51 % 59 % 34 % 1013,9 hPa 0,0 l/m 9,5 km/h (2 Bft) W 270 0 min 0,4 UV-I 9,7 C 21,5 C 24,6 km/h (4 Bft)
03.10.2012 16:15 20,0 C 18,8 C 18,9 C 21,1 C 21,1 C 1,1 C 51 % 60 % 29 % 1013,9 hPa 0,0 l/m 10,0 km/h (2 Bft) W-SW 247 0 min 0,4 UV-I 9,6 C 21,1 C 16,7 km/h (3 Bft)
03.10.2012 16:20 19,9 C 18,8 C 18,8 C 20,6 C 20,6 C 0,7 C 51 % 60 % 18 % 1013,9 hPa 0,0 l/m 11,4 km/h (2 Bft) SW 225 0 min 0,2 UV-I 9,5 C 20,6 C 26,1 km/h (4 Bft)
03.10.2012 16:25 19,8 C 18,9 C 18,7 C 20,3 C 20,3 C 0,5 C 52 % 60 % 13 % 1014,0 hPa 0,0 l/m 12,7 km/h (3 Bft) W-SW 247 0 min 0,2 UV-I 9,7 C 20,3 C 16,6 km/h (3 Bft)
03.10.2012 16:30 19,7 C 18,9 C 18,4 C 19,8 C 19,8 C 0,1 C 52 % 60 % 3 % 1014,0 hPa 0,0 l/m 10,6 km/h (2 Bft) S 180 0 min 0,1 UV-I 9,6 C 19,8 C 19,8 km/h (3 Bft)
03.10.2012 16:35 19,5 C 18,9 C 18,3 C 19,6 C 19,6 C 0,1 C 52 % 60 % 3 % 1014,0 hPa 0,0 l/m 10,6 km/h (2 Bft) SW 225 0 min 0,0 UV-I 9,4 C 19,6 C 22,0 km/h (4 Bft)
03.10.2012 16:40 19,3 C 18,9 C 18,3 C 19,4 C 19,4 C 0,1 C 52 % 60 % 3 % 1014,0 hPa 0,0 l/m 9,7 km/h (2 Bft) S-SW 202 0 min 0,0 UV-I 9,2 C 19,4 C 8,4 km/h (2 Bft)
03.10.2012 16:45 19,2 C 18,9 C 18,1 C 19,2 C 19,2 C 0,0 C 53 % 60 % 0 % 1014,1 hPa 0,0 l/m 8,9 km/h (2 Bft) SW 225 0 min 0,0 UV-I 9,4 C 19,2 C 11,3 km/h (2 Bft)
03.10.2012 16:50 19,1 C 18,9 C 18,0 C 19,1 C 19,0 C 0,0 C 53 % 61 % 0 % 1014,1 hPa 0,0 l/m 8,0 km/h (2 Bft) S 180 0 min 0,0 UV-I 9,3 C 19,0 C 5,1 km/h (1 Bft)
03.10.2012 16:55 19,1 C 18,9 C 17,9 C 19,1 C 19,0 C 0,0 C 54 % 61 % 0 % 1014,1 hPa 0,0 l/m 8,0 km/h (2 Bft) W-SW 247 0 min 0,0 UV-I 9,6 C 19,0 C 5,8 km/h (2 Bft)
03.10.2012 17:00 18,8 C 18,9 C 17,9 C 18,9 C 18,9 C 0,1 C 55 % 62 % 3 % 1014,1 hPa 0,0 l/m 6,6 km/h (2 Bft) W-SW 247 0 min 0,0 UV-I 9,6 C 18,9 C 11,4 km/h (2 Bft)
03.10.2012 17:05 18,7 C 19,0 C 17,7 C 18,7 C 18,7 C 0,0 C 55 % 62 % 0 % 1013,8 hPa 0,0 l/m 6,9 km/h (2 Bft) SW 225 0 min 0,0 UV-I 9,5 C 18,7 C 9,7 km/h (2 Bft)
03.10.2012 17:10 18,6 C 19,0 C 17,5 C 18,5 C 18,4 C 0,0 C 56 % 63 % 0 % 1013,8 hPa 0,0 l/m 7,2 km/h (2 Bft) W-SW 247 0 min 0,0 UV-I 9,6 C 18,4 C 8,5 km/h (2 Bft)
03.10.2012 17:15 18,4 C 19,0 C 17,5 C 18,4 C 18,3 C 0,0 C 56 % 64 % 0 % 1013,8 hPa 0,0 l/m 6,3 km/h (2 Bft) W-SW 247 0 min 0,0 UV-I 9,5 C 18,3 C 5,8 km/h (2 Bft)
03.10.2012 17:20 18,4 C 19,0 C 17,3 C 18,3 C 18,1 C 0,0 C 57 % 64 % 0 % 1013,8 hPa 0,0 l/m 5,1 km/h (1 Bft) S 180 0 min 0,0 UV-I 9,7 C 18,1 C 7,2 km/h (2 Bft)
03.10.2012 17:25 18,3 C 19,0 C 17,2 C 18,2 C 18,1 C 0,0 C 58 % 65 % 0 % 1014,0 hPa 0,0 l/m 4,7 km/h (1 Bft) SW 225 0 min 0,0 UV-I 9,9 C 18,1 C 7,1 km/h (2 Bft)
03.10.2012 17:30 18,3 C 19,0 C 17,2 C 18,2 C 18,0 C 0,0 C 58 % 65 % 0 % 1014,0 hPa 0,0 l/m 4,8 km/h (1 Bft) W-SW 247 0 min 0,0 UV-I 9,9 C 18,0 C 7,7 km/h (2 Bft)
03.10.2012 17:35 18,1 C 19,0 C 17,1 C 18,1 C 18,0 C 0,0 C 58 % 65 % 0 % 1014,0 hPa 0,0 l/m 5,1 km/h (1 Bft) W-SW 247 0 min 0,0 UV-I 9,7 C 18,0 C 9,3 km/h (2 Bft)
03.10.2012 17:40 18,1 C 19,0 C 17,1 C 18,1 C 18,0 C 0,0 C 58 % 65 % 0 % 1014,0 hPa 0,0 l/m 4,8 km/h (1 Bft) S 180 0 min 0,0 UV-I 9,7 C 18,0 C 5,8 km/h (2 Bft)
03.10.2012 17:45 18,1 C 19,1 C 17,2 C 18,1 C 18,1 C 0,0 C 58 % 66 % 0 % 1014,2 hPa 0,0 l/m 4,2 km/h (1 Bft) W-SW 247 0 min 0,0 UV-I 9,7 C 18,1 C 4,0 km/h (1 Bft)
03.10.2012 17:50 18,2 C 19,1 C 17,5 C 19,4 C 19,4 C 1,2 C 58 % 66 % 32 % 1014,2 hPa 0,0 l/m 3,2 km/h (1 Bft) W 270 0 min 0,0 UV-I 9,8 C 19,4 C 5,0 km/h (1 Bft)
03.10.2012 17:55 18,3 C 19,1 C 17,5 C 20,2 C 20,2 C 1,9 C 58 % 66 % 50 % 1014,2 hPa 0,0 l/m 2,7 km/h (1 Bft) W-SW 247 5 min 0,0 UV-I 9,9 C 20,2 C 3,2 km/h (1 Bft)
03.10.2012 18:00 18,5 C 19,1 C 17,6 C 20,4 C 20,4 C 1,9 C 58 % 65 % 50 % 1014,2 hPa 0,0 l/m 2,7 km/h (1 Bft) S 180 5 min 0,0 UV-I 10,1 C 20,4 C 4,3 km/h (1 Bft)
03.10.2012 18:05 18,5 C 19,1 C 17,5 C 19,9 C 19,9 C 1,4 C 58 % 65 % 37 % 1013,8 hPa 0,0 l/m 3,5 km/h (1 Bft) S-SW 202 5 min 0,0 UV-I 10,1 C 19,9 C 4,0 km/h (1 Bft)
03.10.2012 18:10 18,3 C 19,1 C 17,3 C 19,0 C 19,0 C 0,7 C 58 % 65 % 18 % 1013,8 hPa 0,0 l/m 2,6 km/h (1 Bft) W-SW 247 5 min 0,0 UV-I 9,9 C 19,0 C 0,0 km/h (0 Bft)
03.10.2012 18:15 18,1 C 19,1 C 17,1 C 18,4 C 18,4 C 0,3 C 58 % 66 % 8 % 1013,8 hPa 0,0 l/m 2,6 km/h (1 Bft) W-SW 247 0 min 0,0 UV-I 9,7 C 18,4 C 5,1 km/h (1 Bft)
03.10.2012 18:20 17,9 C 19,2 C 16,9 C 17,9 C 17,8 C 0,0 C 59 % 66 % 0 % 1013,8 hPa 0,0 l/m 1,8 km/h (1 Bft) S-SW 202 0 min 0,0 UV-I 9,8 C 17,8 C 0,0 km/h (0 Bft)
03.10.2012 18:25 17,9 C 19,2 C 16,8 C 17,8 C 17,7 C 0,0 C 59 % 67 % 0 % 1013,8 hPa 0,0 l/m 1,1 km/h (1 Bft) SW 225 0 min 0,0 UV-I 9,8 C 17,7 C 2,3 km/h (1 Bft)
03.10.2012 18:30 17,5 C 19,3 C 16,7 C 17,4 C 17,2 C 0,0 C 59 % 67 % 0 % 1013,8 hPa 0,0 l/m 1,3 km/h (1 Bft) SO 135 0 min 0,0 UV-I 9,4 C 17,2 C 2,6 km/h (1 Bft)
03.10.2012 18:35 17,5 C 19,3 C 16,5 C 17,3 C 16,9 C 0,0 C 59 % 67 % 0 % 1013,8 hPa 0,0 l/m 1,9 km/h (1 Bft) NW 315 0 min 0,0 UV-I 9,4 C 16,9 C 2,4 km/h (1 Bft)
03.10.2012 18:41 17,0 C 19,3 C 16,1 C 16,7 C 16,2 C 0,0 C 60 % 67 % 0 % 1013,9 hPa 0,0 l/m 1,4 km/h (1 Bft) N 0 0 min 0,0 UV-I 9,2 C 16,2 C 0,0 km/h (0 Bft)
03.10.2012 18:55 16,7 C 19,3 C 15,8 C 16,3 C 15,6 C 0,0 C 61 % 68 % 0 % 1013,9 hPa 0,0 l/m 0,8 km/h (0 Bft) O 90 0 min 0,0 UV-I 9,1 C 15,6 C 2,7 km/h (1 Bft)
03.10.2012 19:00 16,4 C 19,3 C 15,7 C 16,0 C 15,3 C 0,0 C 61 % 69 % 0 % 1013,9 hPa 0,0 l/m 1,1 km/h (1 Bft) W-SW 247 0 min 0,0 UV-I 8,9 C 15,3 C 0,0 km/h (0 Bft)
03.10.2012 19:05 16,3 C 19,3 C 15,5 C 15,9 C 15,1 C 0,0 C 62 % 69 % 0 % 1013,7 hPa 0,0 l/m 1,0 km/h (0 Bft) SO 135 0 min 0,0 UV-I 9,0 C 15,1 C 0,0 km/h (0 Bft)
03.10.2012 19:10 16,1 C 19,3 C 15,2 C 15,7 C 14,9 C 0,0 C 62 % 70 % 0 % 1013,7 hPa 0,0 l/m 0,5 km/h (0 Bft) SO 135 0 min 0,0 UV-I 8,8 C 14,9 C 0,0 km/h (0 Bft)
03.10.2012 19:15 15,9 C 19,3 C 15,1 C 15,5 C 14,7 C 0,0 C 63 % 70 % 0 % 1013,7 hPa 0,0 l/m 0,6 km/h (0 Bft) W-SW 247 0 min 0,0 UV-I 8,9 C 14,7 C 1,6 km/h (1 Bft)
03.10.2012 19:20 15,7 C 19,3 C 14,8 C 15,3 C 14,5 C 0,0 C 64 % 71 % 0 % 1013,7 hPa 0,0 l/m 0,6 km/h (0 Bft) S 180 0 min 0,0 UV-I 8,9 C 14,5 C 0,0 km/h (0 Bft)
03.10.2012 19:25 15,5 C 19,3 C 14,7 C 15,1 C 14,3 C 0,0 C 65 % 71 % 0 % 1013,9 hPa 0,0 l/m 0,5 km/h (0 Bft) W-SW 247 0 min 0,0 UV-I 8,9 C 14,3 C 0,0 km/h (0 Bft)
03.10.2012 19:30 15,2 C 19,3 C 14,5 C 14,8 C 14,0 C 0,0 C 66 % 72 % 0 % 1013,9 hPa 0,0 l/m 0,6 km/h (0 Bft) SW 225 0 min 0,0 UV-I 8,9 C 14,0 C 3,2 km/h (1 Bft)
03.10.2012 19:35 15,1 C 19,3 C 14,5 C 14,7 C 13,9 C 0,0 C 66 % 72 % 0 % 1013,9 hPa 0,0 l/m 0,6 km/h (0 Bft) W-SW 247 0 min 0,0 UV-I 8,8 C 13,9 C 0,0 km/h (0 Bft)
03.10.2012 19:40 14,8 C 19,3 C 14,2 C 14,5 C 13,8 C 0,0 C 67 % 73 % 0 % 1013,9 hPa 0,0 l/m 0,3 km/h (0 Bft) N-NO 22 0 min 0,0 UV-I 8,7 C 13,8 C 0,0 km/h (0 Bft)
03.10.2012 19:45 14,7 C 19,4 C 14,2 C 14,3 C 13,6 C 0,0 C 68 % 73 % 0 % 1013,8 hPa 0,0 l/m 0,2 km/h (0 Bft) O-NO 67 0 min 0,0 UV-I 8,9 C 13,6 C 0,0 km/h (0 Bft)
03.10.2012 19:50 14,5 C 19,5 C 13,9 C 14,1 C 13,3 C 0,0 C 69 % 74 % 0 % 1013,8 hPa 0,0 l/m 0,2 km/h (0 Bft) O-NO 67 0 min 0,0 UV-I 8,9 C 13,3 C 0,0 km/h (0 Bft)
03.10.2012 19:55 14,5 C 19,5 C 13,9 C 14,1 C 13,2 C 0,0 C 69 % 74 % 0 % 1013,8 hPa 0,0 l/m 0,2 km/h (0 Bft) O-NO 67 0 min 0,0 UV-I 8,9 C 13,2 C 0,0 km/h (0 Bft)
03.10.2012 20:00 14,3 C 19,5 C 13,6 C 13,8 C 12,9 C 0,0 C 70 % 75 % 0 % 1013,8 hPa 0,0 l/m 0,0 km/h (0 Bft) O-NO 67 0 min 0,0 UV-I 8,9 C 12,9 C 0,0 km/h (0 Bft)
03.10.2012 20:05 14,1 C 19,5 C 13,5 C 13,7 C 12,8 C 0,0 C 71 % 76 % 0 % 1013,9 hPa 0,0 l/m 0,0 km/h (0 Bft) O 90 0 min 0,0 UV-I 8,9 C 12,8 C 0,0 km/h (0 Bft)
03.10.2012 20:10 13,9 C 19,5 C 13,4 C 13,5 C 12,6 C 0,0 C 71 % 76 % 0 % 1013,9 hPa 0,0 l/m 0,0 km/h (0 Bft) O-SO 112 0 min 0,0 UV-I 8,7 C 12,6 C 0,0 km/h (0 Bft)
03.10.2012 20:15 13,9 C 19,5 C 13,3 C 13,5 C 12,6 C 0,0 C 71 % 77 % 0 % 1013,9 hPa 0,0 l/m 0,0 km/h (0 Bft) O-NO 67 0 min 0,0 UV-I 8,7 C 12,6 C 0,0 km/h (0 Bft)
03.10.2012 20:20 13,7 C 19,5 C 13,3 C 13,3 C 12,6 C 0,0 C 72 % 77 % 0 % 1013,9 hPa 0,0 l/m 0,0 km/h (0 Bft) O 90 0 min 0,0 UV-I 8,7 C 12,6 C 0,0 km/h (0 Bft)
03.10.2012 20:25 13,5 C 19,5 C 13,3 C 13,2 C 12,5 C 0,0 C 73 % 77 % 0 % 1013,8 hPa 0,0 l/m 0,0 km/h (0 Bft) O 90 0 min 0,0 UV-I 8,8 C 12,5 C 0,0 km/h (0 Bft)
03.10.2012 20:30 13,5 C 19,5 C 13,1 C 13,1 C 12,3 C 0,0 C 73 % 78 % 0 % 1013,8 hPa 0,0 l/m 0,0 km/h (0 Bft) N-NO 22 0 min 0,0 UV-I 8,8 C 12,3 C 0,0 km/h (0 Bft)
03.10.2012 20:35 13,3 C 19,5 C 13,0 C 12,9 C 12,2 C 0,0 C 74 % 78 % 0 % 1013,8 hPa 0,0 l/m 0,0 km/h (0 Bft) N-NO 22 0 min 0,0 UV-I 8,8 C 12,2 C 0,0 km/h (0 Bft)
03.10.2012 20:40 13,2 C 19,5 C 12,8 C 12,8 C 12,0 C 0,0 C 74 % 78 % 0 % 1013,8 hPa 0,0 l/m 0,0 km/h (0 Bft) O-NO 67 0 min 0,0 UV-I 8,7 C 12,0 C 0,0 km/h (0 Bft)
03.10.2012 20:45 13,1 C 19,5 C 12,7 C 12,7 C 12,0 C 0,0 C 75 % 79 % 0 % 1013,8 hPa 0,0 l/m 0,0 km/h (0 Bft) N-NO 22 0 min 0,0 UV-I 8,8 C 12,0 C 0,0 km/h (0 Bft)
03.10.2012 20:50 12,9 C 19,5 C 12,7 C 12,6 C 11,9 C 0,0 C 75 % 79 % 0 % 1013,8 hPa 0,0 l/m 0,0 km/h (0 Bft) NO 45 0 min 0,0 UV-I 8,6 C 11,9 C 0,0 km/h (0 Bft)
03.10.2012 20:55 12,8 C 19,5 C 12,7 C 12,5 C 11,8 C 0,0 C 76 % 80 % 0 % 1013,8 hPa 0,0 l/m 0,0 km/h (0 Bft) O-NO 67 0 min 0,0 UV-I 8,7 C 11,8 C 0,0 km/h (0 Bft)
03.10.2012 21:00 12,6 C 19,5 C 12,6 C 12,3 C 11,7 C 0,0 C 76 % 80 % 0 % 1013,8 hPa 0,0 l/m 0,0 km/h (0 Bft) O-SO 112 0 min 0,0 UV-I 8,5 C 11,7 C 0,0 km/h (0 Bft)
03.10.2012 21:05 12,7 C 19,5 C 12,7 C 12,4 C 11,8 C 0,0 C 77 % 80 % 0 % 1013,9 hPa 0,0 l/m 0,0 km/h (0 Bft) N-NW 337 0 min 0,0 UV-I 8,8 C 11,8 C 0,0 km/h (0 Bft)
03.10.2012 21:10 12,7 C 19,5 C 12,9 C 12,5 C 12,0 C 0,0 C 77 % 81 % 0 % 1013,9 hPa 0,0 l/m 0,0 km/h (0 Bft) W 270 0 min 0,0 UV-I 8,8 C 12,0 C 0,0 km/h (0 Bft)
03.10.2012 21:15 12,7 C 19,5 C 12,8 C 12,5 C 12,0 C 0,0 C 77 % 81 % 0 % 1013,9 hPa 0,0 l/m 0,0 km/h (0 Bft) S-SW 202 0 min 0,0 UV-I 8,8 C 12,0 C 0,0 km/h (0 Bft)
03.10.2012 21:20 12,5 C 19,5 C 12,8 C 12,3 C 11,9 C 0,0 C 77 % 81 % 0 % 1013,9 hPa 0,0 l/m 0,0 km/h (0 Bft) S 180 0 min 0,0 UV-I 8,6 C 11,9 C 0,0 km/h (0 Bft)
03.10.2012 21:25 12,5 C 19,5 C 12,8 C 12,3 C 11,9 C 0,0 C 78 % 81 % 0 % 1013,7 hPa 0,0 l/m 0,0 km/h (0 Bft) W-SW 247 0 min 0,0 UV-I 8,8 C 11,9 C 0,0 km/h (0 Bft)
03.10.2012 21:30 12,5 C 19,5 C 12,7 C 12,3 C 11,9 C 0,0 C 78 % 81 % 0 % 1013,7 hPa 0,0 l/m 0,0 km/h (0 Bft) NW 315 0 min 0,0 UV-I 8,8 C 11,9 C 0,0 km/h (0 Bft)
03.10.2012 21:35 12,4 C 19,5 C 12,7 C 12,2 C 11,9 C 0,0 C 78 % 81 % 0 % 1013,7 hPa 0,0 l/m 0,2 km/h (0 Bft) SW 225 0 min 0,0 UV-I 8,7 C 11,9 C 0,0 km/h (0 Bft)
03.10.2012 21:40 12,3 C 19,5 C 12,7 C 12,2 C 11,9 C 0,0 C 79 % 81 % 0 % 1013,7 hPa 0,0 l/m 0,3 km/h (0 Bft) O-SO 112 0 min 0,0 UV-I 8,8 C 11,9 C 0,0 km/h (0 Bft)
03.10.2012 21:45 12,3 C 19,5 C 12,7 C 12,2 C 12,0 C 0,0 C 79 % 81 % 0 % 1013,7 hPa 0,0 l/m 0,3 km/h (0 Bft) SW 225 0 min 0,0 UV-I 8,8 C 12,0 C 2,3 km/h (1 Bft)
03.10.2012 21:50 12,3 C 19,5 C 12,7 C 12,3 C 12,2 C 0,0 C 79 % 81 % 0 % 1013,7 hPa 0,0 l/m 0,6 km/h (0 Bft) W-SW 247 0 min 0,0 UV-I 8,8 C 12,2 C 3,1 km/h (1 Bft)
03.10.2012 21:55 12,4 C 19,5 C 12,7 C 12,4 C 12,4 C 0,0 C 79 % 81 % 0 % 1013,7 hPa 0,0 l/m 0,5 km/h (0 Bft) S-SO 157 0 min 0,0 UV-I 8,9 C 12,4 C 1,9 km/h (1 Bft)
03.10.2012 22:00 12,5 C 19,5 C 12,8 C 12,6 C 12,6 C 0,1 C 79 % 81 % 0 % 1013,7 hPa 0,0 l/m 0,5 km/h (0 Bft) S-SO 157 0 min 0,0 UV-I 9,0 C 12,6 C 0,0 km/h (0 Bft)
03.10.2012 22:05 12,7 C 19,5 C 12,9 C 12,8 C 12,8 C 0,1 C 79 % 82 % 0 % 1013,7 hPa 0,0 l/m 0,6 km/h (0 Bft) SO 135 0 min 0,0 UV-I 9,2 C 12,8 C 3,4 km/h (1 Bft)
03.10.2012 22:10 12,9 C 19,5 C 13,1 C 13,0 C 13,0 C 0,1 C 78 % 82 % 0 % 1013,7 hPa 0,0 l/m 0,8 km/h (0 Bft) NW 315 0 min 0,0 UV-I 9,2 C 13,0 C 0,0 km/h (0 Bft)
03.10.2012 22:15 13,0 C 19,5 C 13,1 C 13,1 C 13,1 C 0,1 C 78 % 81 % 0 % 1013,7 hPa 0,0 l/m 0,6 km/h (0 Bft) NW 315 0 min 0,0 UV-I 9,3 C 13,1 C 0,0 km/h (0 Bft)
03.10.2012 22:20 13,0 C 19,5 C 13,1 C 13,2 C 13,2 C 0,2 C 78 % 81 % 0 % 1013,7 hPa 0,0 l/m 0,0 km/h (0 Bft) O-NO 67 0 min 0,0 UV-I 9,3 C 13,2 C 0,0 km/h (0 Bft)
03.10.2012 22:25 13,1 C 19,5 C 13,2 C 13,2 C 13,2 C 0,1 C 78 % 81 % 0 % 1013,8 hPa 0,0 l/m 0,0 km/h (0 Bft) O-NO 67 0 min 0,0 UV-I 9,4 C 13,2 C 0,0 km/h (0 Bft)
03.10.2012 22:30 13,2 C 19,5 C 13,2 C 13,2 C 13,2 C 0,0 C 77 % 81 % 0 % 1013,8 hPa 0,0 l/m 0,0 km/h (0 Bft) O-NO 67 0 min 0,0 UV-I 9,3 C 13,2 C 0,0 km/h (0 Bft)
03.10.2012 22:35 13,3 C 19,5 C 13,3 C 13,3 C 13,2 C 0,0 C 77 % 80 % 0 % 1013,8 hPa 0,0 l/m 0,0 km/h (0 Bft) O-NO 67 0 min 0,0 UV-I 9,4 C 13,2 C 0,0 km/h (0 Bft)
03.10.2012 22:40 13,5 C 19,5 C 13,2 C 13,4 C 13,3 C 0,0 C 77 % 80 % 0 % 1013,8 hPa 0,0 l/m 0,0 km/h (0 Bft) O 90 0 min 0,0 UV-I 9,5 C 13,3 C 0,0 km/h (0 Bft)
03.10.2012 22:45 13,5 C 19,5 C 13,3 C 13,4 C 13,3 C 0,0 C 76 % 80 % 0 % 1013,5 hPa 0,0 l/m 0,0 km/h (0 Bft) O-SO 112 0 min 0,0 UV-I 9,4 C 13,3 C 0,0 km/h (0 Bft)
03.10.2012 22:50 13,6 C 19,5 C 13,3 C 13,5 C 13,2 C 0,0 C 76 % 80 % 0 % 1013,5 hPa 0,0 l/m 0,0 km/h (0 Bft) O-NO 67 0 min 0,0 UV-I 9,4 C 13,2 C 0,0 km/h (0 Bft)
03.10.2012 22:55 13,6 C 19,5 C 13,2 C 13,5 C 13,3 C 0,0 C 76 % 80 % 0 % 1013,5 hPa 0,0 l/m 0,0 km/h (0 Bft) O 90 0 min 0,0 UV-I 9,4 C 13,3 C 0,0 km/h (0 Bft)
03.10.2012 23:00 13,6 C 19,5 C 13,2 C 13,5 C 13,3 C 0,0 C 76 % 80 % 0 % 1013,5 hPa 0,0 l/m 0,0 km/h (0 Bft) O-NO 67 0 min 0,0 UV-I 9,4 C 13,3 C 0,0 km/h (0 Bft)
03.10.2012 23:05 13,7 C 19,5 C 13,2 C 13,6 C 13,3 C 0,0 C 75 % 80 % 0 % 1013,4 hPa 0,0 l/m 0,2 km/h (0 Bft) NO 45 0 min 0,0 UV-I 9,3 C 13,3 C 0,0 km/h (0 Bft)
03.10.2012 23:10 13,7 C 19,5 C 13,1 C 13,6 C 13,3 C 0,0 C 75 % 80 % 0 % 1013,4 hPa 0,0 l/m 0,3 km/h (0 Bft) O 90 0 min 0,0 UV-I 9,3 C 13,3 C 0,0 km/h (0 Bft)
03.10.2012 23:15 13,6 C 19,5 C 13,1 C 13,5 C 13,2 C 0,0 C 75 % 81 % 0 % 1013,4 hPa 0,0 l/m 0,2 km/h (0 Bft) S-SO 157 0 min 0,0 UV-I 9,3 C 13,2 C 0,0 km/h (0 Bft)
03.10.2012 23:20 13,6 C 19,5 C 13,0 C 13,4 C 12,9 C 0,0 C 75 % 81 % 0 % 1013,4 hPa 0,0 l/m 0,2 km/h (0 Bft) W-SW 247 0 min 0,0 UV-I 9,3 C 12,9 C 0,0 km/h (0 Bft)
03.10.2012 23:25 13,5 C 19,5 C 12,9 C 13,3 C 12,8 C 0,0 C 76 % 81 % 0 % 1013,2 hPa 0,0 l/m 0,2 km/h (0 Bft) O-NO 67 0 min 0,0 UV-I 9,4 C 12,8 C 0,0 km/h (0 Bft)
03.10.2012 23:30 13,3 C 19,5 C 12,8 C 13,1 C 12,6 C 0,0 C 76 % 81 % 0 % 1013,2 hPa 0,0 l/m 0,0 km/h (0 Bft) SO 135 0 min 0,0 UV-I 9,2 C 12,6 C 0,0 km/h (0 Bft)
03.10.2012 23:35 13,2 C 19,4 C 12,8 C 13,0 C 12,6 C 0,0 C 76 % 81 % 0 % 1013,2 hPa 0,0 l/m 0,0 km/h (0 Bft) SO 135 0 min 0,0 UV-I 9,1 C 12,6 C 0,0 km/h (0 Bft)
03.10.2012 23:40 13,3 C 19,4 C 12,9 C 13,1 C 12,8 C 0,0 C 76 % 82 % 0 % 1013,2 hPa 0,0 l/m 0,5 km/h (0 Bft) SO 135 0 min 0,0 UV-I 9,2 C 12,8 C 3,1 km/h (1 Bft)
03.10.2012 23:45 13,3 C 19,4 C 13,1 C 13,3 C 13,2 C 0,0 C 76 % 81 % 0 % 1013,0 hPa 0,0 l/m 0,8 km/h (0 Bft) S-SW 202 0 min 0,0 UV-I 9,2 C 13,2 C 2,9 km/h (1 Bft)
03.10.2012 23:50 13,6 C 19,4 C 13,3 C 13,6 C 13,6 C 0,0 C 76 % 81 % 0 % 1013,0 hPa 0,0 l/m 1,3 km/h (1 Bft) S 180 0 min 0,0 UV-I 9,4 C 13,6 C 1,8 km/h (1 Bft)
03.10.2012 23:55 13,7 C 19,4 C 13,5 C 13,9 C 13,9 C 0,2 C 75 % 80 % 0 % 1013,0 hPa 0,0 l/m 1,3 km/h (1 Bft) SO 135 0 min 0,0 UV-I 9,3 C 13,9 C 0,0 km/h (0 Bft)
_ Min-Zeit 05:30 11:00 06:05 04:10 04:10 00:15 15:30 15:30 00:00 23:45 - 00:00 - - - 00:00 05:30 04:10 00:00
Minimum _ 6,1 C 18,0 C 7,5 C 6,4 C 6,4 C 0,0 C 50 % 58 % 0 % 1013,0 hPa - 0,0 km/h (0 Bft) - - - 0,0 UV-I 4,3 C 6,4 C 0,0 km/h (0 Bft)
_ Max-Zeit 15:30 19:50 15:20 15:25 15:25 12:55 08:40 09:00 09:15 00:00 00:00 16:25 - - 12:55 12:55 11:15 15:25 16:20
Maximum _ 20,6 C 19,5 C 19,5 C 24,9 C 24,9 C 5,9 C 92 % 92 % 100 % 1017,6 hPa 0,0 l/m 12,7 km/h
W-SW (3 Bft)
- - 14 min 2,2 UV-I 10,9 C 24,9 C 26,1 km/h
SW (4 Bft)
Durchschnitt _ 12,8 C 18,9 C 12,9 C 13,9 C 13,8 C 1,2 C 75 % 79 % 25 % 1015,2 hPa #0,0 l/m 1,8 km/h (1 Bft) W-SW - #5:05 h 1,0 UV-I 8,0 C 13,8 C 2,8 km/h (1 Bft)
2012 www.wetterstation-wechselburg.de